sensor_id;sensor_type;location;lat;lon;timestamp;P1;durP1;ratioP1;P2;durP2;ratioP2
14205;SDS011;7186;48.800;9.216;2023-04-15T00:00:52;12.70;;;6.37;;
14205;SDS011;7186;48.800;9.216;2023-04-15T00:03:18;10.83;;;5.20;;
14205;SDS011;7186;48.800;9.216;2023-04-15T00:05:43;9.50;;;5.50;;
14205;SDS011;7186;48.800;9.216;2023-04-15T00:08:09;9.13;;;4.97;;
14205;SDS011;7186;48.800;9.216;2023-04-15T00:10:34;9.13;;;5.27;;
14205;SDS011;7186;48.800;9.216;2023-04-15T00:12:59;10.03;;;5.60;;
14205;SDS011;7186;48.800;9.216;2023-04-15T00:15:24;10.37;;;4.70;;
14205;SDS011;7186;48.800;9.216;2023-04-15T00:17:50;7.40;;;4.40;;
14205;SDS011;7186;48.800;9.216;2023-04-15T00:20:16;12.17;;;4.97;;
14205;SDS011;7186;48.800;9.216;2023-04-15T00:22:41;9.33;;;4.90;;
14205;SDS011;7186;48.800;9.216;2023-04-15T00:25:06;8.53;;;5.10;;
14205;SDS011;7186;48.800;9.216;2023-04-15T00:27:32;11.27;;;4.87;;
14205;SDS011;7186;48.800;9.216;2023-04-15T00:29:57;8.07;;;4.67;;
14205;SDS011;7186;48.800;9.216;2023-04-15T00:32:22;9.90;;;5.30;;
14205;SDS011;7186;48.800;9.216;2023-04-15T00:34:47;9.50;;;4.53;;
14205;SDS011;7186;48.800;9.216;2023-04-15T00:37:13;6.47;;;4.47;;
14205;SDS011;7186;48.800;9.216;2023-04-15T00:39:38;9.43;;;4.67;;
14205;SDS011;7186;48.800;9.216;2023-04-15T00:42:04;8.27;;;4.87;;
14205;SDS011;7186;48.800;9.216;2023-04-15T00:44:29;9.07;;;4.73;;
14205;SDS011;7186;48.800;9.216;2023-04-15T00:46:54;8.10;;;4.63;;
14205;SDS011;7186;48.800;9.216;2023-04-15T00:49:22;7.13;;;4.70;;
14205;SDS011;7186;48.800;9.216;2023-04-15T00:51:48;7.40;;;5.27;;
14205;SDS011;7186;48.800;9.216;2023-04-15T00:54:13;10.63;;;5.80;;
14205;SDS011;7186;48.800;9.216;2023-04-15T00:56:38;7.20;;;4.30;;
14205;SDS011;7186;48.800;9.216;2023-04-15T00:59:04;5.67;;;4.17;;
14205;SDS011;7186;48.800;9.216;2023-04-15T01:01:35;10.13;;;4.50;;
14205;SDS011;7186;48.800;9.216;2023-04-15T01:04:01;7.97;;;4.70;;
14205;SDS011;7186;48.800;9.216;2023-04-15T01:06:27;8.10;;;4.20;;
14205;SDS011;7186;48.800;9.216;2023-04-15T01:08:53;8.23;;;4.30;;
14205;SDS011;7186;48.800;9.216;2023-04-15T01:11:18;12.27;;;5.50;;
14205;SDS011;7186;48.800;9.216;2023-04-15T01:13:43;7.73;;;4.80;;
14205;SDS011;7186;48.800;9.216;2023-04-15T01:16:09;11.23;;;5.27;;
14205;SDS011;7186;48.800;9.216;2023-04-15T01:18:35;11.37;;;5.17;;
14205;SDS011;7186;48.800;9.216;2023-04-15T01:21:01;8.17;;;4.87;;
14205;SDS011;7186;48.800;9.216;2023-04-15T01:23:27;8.23;;;5.37;;
14205;SDS011;7186;48.800;9.216;2023-04-15T01:25:53;8.97;;;5.17;;
14205;SDS011;7186;48.800;9.216;2023-04-15T01:28:19;11.23;;;4.73;;
14205;SDS011;7186;48.800;9.216;2023-04-15T01:30:44;7.43;;;4.63;;
14205;SDS011;7186;48.800;9.216;2023-04-15T01:33:09;9.10;;;5.60;;
14205;SDS011;7186;48.800;9.216;2023-04-15T01:35:35;10.60;;;5.20;;
14205;SDS011;7186;48.800;9.216;2023-04-15T01:38:05;7.53;;;5.30;;
14205;SDS011;7186;48.800;9.216;2023-04-15T01:40:31;10.60;;;5.33;;
14205;SDS011;7186;48.800;9.216;2023-04-15T01:42:56;9.87;;;5.63;;
14205;SDS011;7186;48.800;9.216;2023-04-15T01:45:21;9.70;;;5.60;;
14205;SDS011;7186;48.800;9.216;2023-04-15T01:47:47;9.47;;;5.80;;
14205;SDS011;7186;48.800;9.216;2023-04-15T01:50:13;11.13;;;5.77;;
14205;SDS011;7186;48.800;9.216;2023-04-15T01:52:39;7.27;;;5.30;;
14205;SDS011;7186;48.800;9.216;2023-04-15T01:55:04;10.50;;;5.00;;
14205;SDS011;7186;48.800;9.216;2023-04-15T01:57:30;10.07;;;5.00;;
14205;SDS011;7186;48.800;9.216;2023-04-15T01:59:55;10.70;;;5.17;;
14205;SDS011;7186;48.800;9.216;2023-04-15T02:02:20;11.03;;;5.43;;
14205;SDS011;7186;48.800;9.216;2023-04-15T02:04:45;10.13;;;4.93;;
14205;SDS011;7186;48.800;9.216;2023-04-15T02:07:11;10.97;;;6.07;;
14205;SDS011;7186;48.800;9.216;2023-04-15T02:09:36;9.47;;;5.93;;
14205;SDS011;7186;48.800;9.216;2023-04-15T02:12:01;10.80;;;5.67;;
14205;SDS011;7186;48.800;9.216;2023-04-15T02:14:26;11.40;;;5.47;;
14205;SDS011;7186;48.800;9.216;2023-04-15T02:16:51;9.40;;;5.43;;
14205;SDS011;7186;48.800;9.216;2023-04-15T02:19:17;10.90;;;6.03;;
14205;SDS011;7186;48.800;9.216;2023-04-15T02:21:42;11.73;;;6.03;;
14205;SDS011;7186;48.800;9.216;2023-04-15T02:24:07;9.33;;;6.03;;
14205;SDS011;7186;48.800;9.216;2023-04-15T02:26:33;10.43;;;5.60;;
14205;SDS011;7186;48.800;9.216;2023-04-15T02:28:58;9.77;;;5.57;;
14205;SDS011;7186;48.800;9.216;2023-04-15T02:31:24;11.30;;;5.27;;
14205;SDS011;7186;48.800;9.216;2023-04-15T02:33:49;9.23;;;5.30;;
14205;SDS011;7186;48.800;9.216;2023-04-15T02:36:15;10.87;;;4.73;;
14205;SDS011;7186;48.800;9.216;2023-04-15T02:38:40;9.07;;;5.13;;
14205;SDS011;7186;48.800;9.216;2023-04-15T02:41:07;9.37;;;5.00;;
14205;SDS011;7186;48.800;9.216;2023-04-15T02:43:32;8.67;;;4.90;;
14205;SDS011;7186;48.800;9.216;2023-04-15T02:45:58;8.23;;;4.87;;
14205;SDS011;7186;48.800;9.216;2023-04-15T02:48:23;10.03;;;5.40;;
14205;SDS011;7186;48.800;9.216;2023-04-15T02:50:48;10.47;;;5.33;;
14205;SDS011;7186;48.800;9.216;2023-04-15T02:53:13;11.23;;;5.57;;
14205;SDS011;7186;48.800;9.216;2023-04-15T02:55:39;7.80;;;4.57;;
14205;SDS011;7186;48.800;9.216;2023-04-15T02:58:04;11.50;;;5.17;;
14205;SDS011;7186;48.800;9.216;2023-04-15T03:00:30;10.67;;;5.43;;
14205;SDS011;7186;48.800;9.216;2023-04-15T03:03:02;11.20;;;5.47;;
14205;SDS011;7186;48.800;9.216;2023-04-15T03:05:28;9.10;;;5.13;;
14205;SDS011;7186;48.800;9.216;2023-04-15T03:07:53;10.07;;;5.13;;
14205;SDS011;7186;48.800;9.216;2023-04-15T03:10:19;12.17;;;5.33;;
14205;SDS011;7186;48.800;9.216;2023-04-15T03:12:44;7.77;;;5.27;;
14205;SDS011;7186;48.800;9.216;2023-04-15T03:15:10;9.90;;;5.33;;
14205;SDS011;7186;48.800;9.216;2023-04-15T03:17:36;7.93;;;5.30;;
14205;SDS011;7186;48.800;9.216;2023-04-15T03:20:01;9.67;;;5.50;;
14205;SDS011;7186;48.800;9.216;2023-04-15T03:22:27;11.93;;;5.27;;
14205;SDS011;7186;48.800;9.216;2023-04-15T03:24:53;7.63;;;4.70;;
14205;SDS011;7186;48.800;9.216;2023-04-15T03:27:18;7.87;;;5.70;;
14205;SDS011;7186;48.800;9.216;2023-04-15T03:29:43;11.00;;;5.50;;
14205;SDS011;7186;48.800;9.216;2023-04-15T03:32:08;12.67;;;5.23;;
14205;SDS011;7186;48.800;9.216;2023-04-15T03:34:33;11.80;;;5.50;;
14205;SDS011;7186;48.800;9.216;2023-04-15T03:36:58;11.20;;;5.43;;
14205;SDS011;7186;48.800;9.216;2023-04-15T03:39:24;9.03;;;5.23;;
14205;SDS011;7186;48.800;9.216;2023-04-15T03:41:49;7.50;;;4.70;;
14205;SDS011;7186;48.800;9.216;2023-04-15T03:44:14;10.33;;;5.37;;
14205;SDS011;7186;48.800;9.216;2023-04-15T03:46:40;10.33;;;5.30;;
14205;SDS011;7186;48.800;9.216;2023-04-15T03:49:05;9.33;;;5.20;;
14205;SDS011;7186;48.800;9.216;2023-04-15T03:51:31;9.10;;;5.37;;
14205;SDS011;7186;48.800;9.216;2023-04-15T03:53:56;8.80;;;5.00;;
14205;SDS011;7186;48.800;9.216;2023-04-15T03:56:22;12.23;;;4.90;;
14205;SDS011;7186;48.800;9.216;2023-04-15T03:58:47;11.67;;;6.17;;
14205;SDS011;7186;48.800;9.216;2023-04-15T04:01:13;6.93;;;5.03;;
14205;SDS011;7186;48.800;9.216;2023-04-15T04:03:38;8.27;;;5.47;;
14205;SDS011;7186;48.800;9.216;2023-04-15T04:06:03;8.60;;;5.23;;
14205;SDS011;7186;48.800;9.216;2023-04-15T04:08:28;9.40;;;5.13;;
14205;SDS011;7186;48.800;9.216;2023-04-15T04:10:53;9.17;;;4.93;;
14205;SDS011;7186;48.800;9.216;2023-04-15T04:13:19;9.63;;;5.47;;
14205;SDS011;7186;48.800;9.216;2023-04-15T04:15:44;9.43;;;5.17;;
14205;SDS011;7186;48.800;9.216;2023-04-15T04:18:09;9.20;;;5.20;;
14205;SDS011;7186;48.800;9.216;2023-04-15T04:20:35;9.87;;;5.27;;
14205;SDS011;7186;48.800;9.216;2023-04-15T04:23:00;8.03;;;4.97;;
14205;SDS011;7186;48.800;9.216;2023-04-15T04:25:25;8.93;;;5.60;;
14205;SDS011;7186;48.800;9.216;2023-04-15T04:27:51;9.23;;;5.13;;
14205;SDS011;7186;48.800;9.216;2023-04-15T04:30:16;10.77;;;6.03;;
14205;SDS011;7186;48.800;9.216;2023-04-15T04:32:41;11.30;;;5.90;;
14205;SDS011;7186;48.800;9.216;2023-04-15T04:35:07;13.17;;;7.10;;
14205;SDS011;7186;48.800;9.216;2023-04-15T04:37:32;12.37;;;7.03;;
14205;SDS011;7186;48.800;9.216;2023-04-15T04:39:57;11.00;;;6.57;;
14205;SDS011;7186;48.800;9.216;2023-04-15T04:42:23;12.03;;;6.53;;
14205;SDS011;7186;48.800;9.216;2023-04-15T04:44:48;11.57;;;6.93;;
14205;SDS011;7186;48.800;9.216;2023-04-15T04:47:13;9.00;;;6.57;;
14205;SDS011;7186;48.800;9.216;2023-04-15T04:49:38;11.30;;;6.37;;
14205;SDS011;7186;48.800;9.216;2023-04-15T04:52:03;13.83;;;6.73;;
14205;SDS011;7186;48.800;9.216;2023-04-15T04:54:29;9.97;;;6.00;;
14205;SDS011;7186;48.800;9.216;2023-04-15T04:56:55;14.00;;;6.87;;
14205;SDS011;7186;48.800;9.216;2023-04-15T04:59:21;10.10;;;6.80;;
14205;SDS011;7186;48.800;9.216;2023-04-15T05:01:47;11.57;;;6.23;;
14205;SDS011;7186;48.800;9.216;2023-04-15T05:04:12;10.80;;;5.87;;
14205;SDS011;7186;48.800;9.216;2023-04-15T05:06:37;8.73;;;5.37;;
14205;SDS011;7186;48.800;9.216;2023-04-15T05:09:02;11.37;;;5.13;;
14205;SDS011;7186;48.800;9.216;2023-04-15T05:11:28;9.20;;;4.77;;
14205;SDS011;7186;48.800;9.216;2023-04-15T05:13:53;7.43;;;5.30;;
14205;SDS011;7186;48.800;9.216;2023-04-15T05:16:18;10.30;;;5.63;;
14205;SDS011;7186;48.800;9.216;2023-04-15T05:18:44;9.03;;;5.07;;
14205;SDS011;7186;48.800;9.216;2023-04-15T05:21:09;9.57;;;5.47;;
14205;SDS011;7186;48.800;9.216;2023-04-15T05:23:35;8.80;;;5.40;;
14205;SDS011;7186;48.800;9.216;2023-04-15T05:26:00;7.23;;;5.27;;
14205;SDS011;7186;48.800;9.216;2023-04-15T05:28:26;7.17;;;5.33;;
14205;SDS011;7186;48.800;9.216;2023-04-15T05:30:51;8.60;;;5.33;;
14205;SDS011;7186;48.800;9.216;2023-04-15T05:33:16;7.67;;;5.07;;
14205;SDS011;7186;48.800;9.216;2023-04-15T05:35:41;10.07;;;5.27;;
14205;SDS011;7186;48.800;9.216;2023-04-15T05:38:07;10.37;;;5.63;;
14205;SDS011;7186;48.800;9.216;2023-04-15T05:40:32;10.20;;;6.30;;
14205;SDS011;7186;48.800;9.216;2023-04-15T05:42:57;12.80;;;6.20;;
14205;SDS011;7186;48.800;9.216;2023-04-15T05:45:22;8.43;;;5.63;;
14205;SDS011;7186;48.800;9.216;2023-04-15T05:47:47;9.47;;;5.80;;
14205;SDS011;7186;48.800;9.216;2023-04-15T05:50:14;8.37;;;5.50;;
14205;SDS011;7186;48.800;9.216;2023-04-15T05:52:40;11.87;;;5.87;;
14205;SDS011;7186;48.800;9.216;2023-04-15T05:55:05;11.77;;;5.53;;
14205;SDS011;7186;48.800;9.216;2023-04-15T05:57:30;9.47;;;5.57;;
14205;SDS011;7186;48.800;9.216;2023-04-15T05:59:56;9.67;;;5.17;;
14205;SDS011;7186;48.800;9.216;2023-04-15T06:02:21;7.97;;;5.07;;
14205;SDS011;7186;48.800;9.216;2023-04-15T06:04:46;8.77;;;4.80;;
14205;SDS011;7186;48.800;9.216;2023-04-15T06:07:12;8.37;;;5.30;;
14205;SDS011;7186;48.800;9.216;2023-04-15T06:09:37;7.80;;;4.57;;
14205;SDS011;7186;48.800;9.216;2023-04-15T06:12:02;7.27;;;4.70;;
14205;SDS011;7186;48.800;9.216;2023-04-15T06:14:28;9.83;;;4.80;;
14205;SDS011;7186;48.800;9.216;2023-04-15T06:16:53;7.27;;;5.07;;
14205;SDS011;7186;48.800;9.216;2023-04-15T06:19:18;10.90;;;5.67;;
14205;SDS011;7186;48.800;9.216;2023-04-15T06:21:44;9.20;;;5.07;;
14205;SDS011;7186;48.800;9.216;2023-04-15T06:24:10;10.83;;;5.23;;
14205;SDS011;7186;48.800;9.216;2023-04-15T06:26:36;8.00;;;4.60;;
14205;SDS011;7186;48.800;9.216;2023-04-15T06:29:01;8.40;;;4.53;;
14205;SDS011;7186;48.800;9.216;2023-04-15T06:31:26;8.73;;;5.47;;
14205;SDS011;7186;48.800;9.216;2023-04-15T06:33:51;8.77;;;5.27;;
14205;SDS011;7186;48.800;9.216;2023-04-15T06:36:17;6.80;;;4.40;;
14205;SDS011;7186;48.800;9.216;2023-04-15T06:38:45;10.20;;;4.57;;
14205;SDS011;7186;48.800;9.216;2023-04-15T06:41:10;9.00;;;5.27;;
14205;SDS011;7186;48.800;9.216;2023-04-15T06:43:35;8.50;;;4.80;;
14205;SDS011;7186;48.800;9.216;2023-04-15T06:46:01;7.67;;;4.70;;
14205;SDS011;7186;48.800;9.216;2023-04-15T06:48:26;8.07;;;4.70;;
14205;SDS011;7186;48.800;9.216;2023-04-15T06:50:51;9.80;;;5.27;;
14205;SDS011;7186;48.800;9.216;2023-04-15T06:53:16;6.13;;;4.57;;
14205;SDS011;7186;48.800;9.216;2023-04-15T06:55:42;11.43;;;4.83;;
14205;SDS011;7186;48.800;9.216;2023-04-15T06:58:07;6.83;;;4.30;;
14205;SDS011;7186;48.800;9.216;2023-04-15T07:00:32;6.30;;;4.20;;
14205;SDS011;7186;48.800;9.216;2023-04-15T07:02:58;6.53;;;4.77;;
14205;SDS011;7186;48.800;9.216;2023-04-15T07:05:24;7.40;;;4.20;;
14205;SDS011;7186;48.800;9.216;2023-04-15T07:07:50;8.80;;;4.90;;
14205;SDS011;7186;48.800;9.216;2023-04-15T07:10:15;7.83;;;4.47;;
14205;SDS011;7186;48.800;9.216;2023-04-15T07:12:40;6.03;;;4.30;;
14205;SDS011;7186;48.800;9.216;2023-04-15T07:15:06;6.47;;;4.57;;
14205;SDS011;7186;48.800;9.216;2023-04-15T07:17:31;9.50;;;5.20;;
14205;SDS011;7186;48.800;9.216;2023-04-15T07:19:57;9.23;;;5.00;;
14205;SDS011;7186;48.800;9.216;2023-04-15T07:22:22;11.80;;;5.20;;
14205;SDS011;7186;48.800;9.216;2023-04-15T07:24:48;9.10;;;5.53;;
14205;SDS011;7186;48.800;9.216;2023-04-15T07:27:13;6.23;;;4.70;;
14205;SDS011;7186;48.800;9.216;2023-04-15T07:29:38;10.73;;;4.47;;
14205;SDS011;7186;48.800;9.216;2023-04-15T07:32:04;7.90;;;4.77;;
14205;SDS011;7186;48.800;9.216;2023-04-15T07:34:29;9.50;;;5.00;;
14205;SDS011;7186;48.800;9.216;2023-04-15T07:36:55;6.50;;;4.43;;
14205;SDS011;7186;48.800;9.216;2023-04-15T07:39:20;12.43;;;4.87;;
14205;SDS011;7186;48.800;9.216;2023-04-15T07:41:45;7.97;;;4.70;;
14205;SDS011;7186;48.800;9.216;2023-04-15T07:44:10;7.63;;;4.97;;
14205;SDS011;7186;48.800;9.216;2023-04-15T07:46:36;10.13;;;5.00;;
14205;SDS011;7186;48.800;9.216;2023-04-15T07:49:02;11.00;;;4.57;;
14205;SDS011;7186;48.800;9.216;2023-04-15T07:51:27;10.43;;;4.83;;
14205;SDS011;7186;48.800;9.216;2023-04-15T07:53:53;11.90;;;4.60;;
14205;SDS011;7186;48.800;9.216;2023-04-15T07:56:19;9.40;;;4.43;;
14205;SDS011;7186;48.800;9.216;2023-04-15T07:58:44;10.17;;;5.30;;
14205;SDS011;7186;48.800;9.216;2023-04-15T08:01:10;7.63;;;4.57;;
14205;SDS011;7186;48.800;9.216;2023-04-15T08:03:35;9.80;;;4.87;;
14205;SDS011;7186;48.800;9.216;2023-04-15T08:06:01;7.10;;;4.83;;
14205;SDS011;7186;48.800;9.216;2023-04-15T08:08:26;8.10;;;4.73;;
14205;SDS011;7186;48.800;9.216;2023-04-15T08:10:51;11.73;;;5.23;;
14205;SDS011;7186;48.800;9.216;2023-04-15T08:13:17;14.90;;;6.00;;
14205;SDS011;7186;48.800;9.216;2023-04-15T08:15:42;10.97;;;5.33;;
14205;SDS011;7186;48.800;9.216;2023-04-15T08:18:08;12.10;;;5.30;;
14205;SDS011;7186;48.800;9.216;2023-04-15T08:20:33;10.50;;;5.73;;
14205;SDS011;7186;48.800;9.216;2023-04-15T08:22:58;12.00;;;5.17;;
14205;SDS011;7186;48.800;9.216;2023-04-15T08:25:23;14.20;;;6.13;;
14205;SDS011;7186;48.800;9.216;2023-04-15T08:27:48;11.93;;;4.87;;
14205;SDS011;7186;48.800;9.216;2023-04-15T08:30:14;7.27;;;4.53;;
14205;SDS011;7186;48.800;9.216;2023-04-15T08:32:40;6.87;;;4.33;;
14205;SDS011;7186;48.800;9.216;2023-04-15T08:35:06;10.07;;;5.03;;
14205;SDS011;7186;48.800;9.216;2023-04-15T08:37:31;7.37;;;4.73;;
14205;SDS011;7186;48.800;9.216;2023-04-15T08:39:57;9.90;;;4.80;;
14205;SDS011;7186;48.800;9.216;2023-04-15T08:42:22;11.77;;;5.23;;
14205;SDS011;7186;48.800;9.216;2023-04-15T08:44:51;9.73;;;4.77;;
14205;SDS011;7186;48.800;9.216;2023-04-15T08:47:17;10.27;;;4.63;;
14205;SDS011;7186;48.800;9.216;2023-04-15T08:49:44;7.10;;;4.93;;
14205;SDS011;7186;48.800;9.216;2023-04-15T08:52:12;12.17;;;5.53;;
14205;SDS011;7186;48.800;9.216;2023-04-15T08:54:38;11.17;;;4.90;;
14205;SDS011;7186;48.800;9.216;2023-04-15T08:57:03;14.40;;;6.23;;
14205;SDS011;7186;48.800;9.216;2023-04-15T08:59:29;12.47;;;4.50;;
14205;SDS011;7186;48.800;9.216;2023-04-15T09:01:55;11.57;;;5.33;;
14205;SDS011;7186;48.800;9.216;2023-04-15T09:04:21;6.57;;;4.30;;
14205;SDS011;7186;48.800;9.216;2023-04-15T09:06:46;6.60;;;4.60;;
14205;SDS011;7186;48.800;9.216;2023-04-15T09:09:11;8.37;;;4.30;;
14205;SDS011;7186;48.800;9.216;2023-04-15T09:11:38;9.90;;;4.87;;
14205;SDS011;7186;48.800;9.216;2023-04-15T09:14:03;11.20;;;4.53;;
14205;SDS011;7186;48.800;9.216;2023-04-15T09:16:28;6.97;;;4.60;;
14205;SDS011;7186;48.800;9.216;2023-04-15T09:18:54;8.73;;;4.20;;
14205;SDS011;7186;48.800;9.216;2023-04-15T09:21:19;11.87;;;6.17;;
14205;SDS011;7186;48.800;9.216;2023-04-15T09:23:58;9.50;;;4.43;;
14205;SDS011;7186;48.800;9.216;2023-04-15T09:26:30;9.63;;;4.57;;
14205;SDS011;7186;48.800;9.216;2023-04-15T09:29:01;10.43;;;5.67;;
14205;SDS011;7186;48.800;9.216;2023-04-15T09:31:30;8.63;;;5.10;;
14205;SDS011;7186;48.800;9.216;2023-04-15T09:33:56;6.03;;;4.00;;
14205;SDS011;7186;48.800;9.216;2023-04-15T09:36:21;7.87;;;3.53;;
14205;SDS011;7186;48.800;9.216;2023-04-15T09:38:56;5.30;;;3.73;;
14205;SDS011;7186;48.800;9.216;2023-04-15T09:41:21;5.90;;;3.50;;
14205;SDS011;7186;48.800;9.216;2023-04-15T09:43:47;3.63;;;3.00;;
14205;SDS011;7186;48.800;9.216;2023-04-15T09:46:12;6.30;;;3.40;;
14205;SDS011;7186;48.800;9.216;2023-04-15T09:48:37;8.20;;;3.30;;
14205;SDS011;7186;48.800;9.216;2023-04-15T09:51:03;4.40;;;2.93;;
14205;SDS011;7186;48.800;9.216;2023-04-15T09:53:28;4.03;;;2.83;;
14205;SDS011;7186;48.800;9.216;2023-04-15T09:55:57;5.80;;;3.30;;
14205;SDS011;7186;48.800;9.216;2023-04-15T10:00:48;4.33;;;3.20;;
14205;SDS011;7186;48.800;9.216;2023-04-15T10:03:16;4.43;;;2.80;;
14205;SDS011;7186;48.800;9.216;2023-04-15T10:05:42;4.93;;;3.13;;
14205;SDS011;7186;48.800;9.216;2023-04-15T10:08:08;5.00;;;3.70;;
14205;SDS011;7186;48.800;9.216;2023-04-15T10:10:33;6.70;;;3.20;;
14205;SDS011;7186;48.800;9.216;2023-04-15T10:12:58;5.07;;;3.43;;
14205;SDS011;7186;48.800;9.216;2023-04-15T10:15:25;4.93;;;3.30;;
14205;SDS011;7186;48.800;9.216;2023-04-15T10:17:51;6.60;;;3.70;;
14205;SDS011;7186;48.800;9.216;2023-04-15T10:20:17;4.53;;;3.17;;
14205;SDS011;7186;48.800;9.216;2023-04-15T10:22:43;4.90;;;3.83;;
14205;SDS011;7186;48.800;9.216;2023-04-15T10:25:09;5.17;;;3.13;;
14205;SDS011;7186;48.800;9.216;2023-04-15T10:27:35;5.10;;;3.30;;
14205;SDS011;7186;48.800;9.216;2023-04-15T10:30:01;10.17;;;3.77;;
14205;SDS011;7186;48.800;9.216;2023-04-15T10:32:27;6.20;;;3.67;;
14205;SDS011;7186;48.800;9.216;2023-04-15T10:34:53;4.97;;;3.30;;
14205;SDS011;7186;48.800;9.216;2023-04-15T10:37:38;10.90;;;3.80;;
14205;SDS011;7186;48.800;9.216;2023-04-15T10:42:47;5.03;;;3.07;;
14205;SDS011;7186;48.800;9.216;2023-04-15T10:45:15;6.00;;;2.77;;
14205;SDS011;7186;48.800;9.216;2023-04-15T10:47:42;5.17;;;3.47;;
14205;SDS011;7186;48.800;9.216;2023-04-15T10:50:08;6.77;;;3.10;;
14205;SDS011;7186;48.800;9.216;2023-04-15T10:52:33;6.17;;;2.83;;
14205;SDS011;7186;48.800;9.216;2023-04-15T10:55:18;5.70;;;2.77;;
14205;SDS011;7186;48.800;9.216;2023-04-15T10:57:43;6.67;;;3.37;;
14205;SDS011;7186;48.800;9.216;2023-04-15T11:00:13;5.40;;;3.20;;
14205;SDS011;7186;48.800;9.216;2023-04-15T11:05:06;6.90;;;3.33;;
14205;SDS011;7186;48.800;9.216;2023-04-15T11:07:52;5.33;;;3.10;;
14205;SDS011;7186;48.800;9.216;2023-04-15T11:12:50;5.90;;;3.80;;
14205;SDS011;7186;48.800;9.216;2023-04-15T11:17:50;5.13;;;3.30;;
14205;SDS011;7186;48.800;9.216;2023-04-15T11:20:15;7.23;;;2.93;;
14205;SDS011;7186;48.800;9.216;2023-04-15T11:22:49;7.03;;;3.20;;
14205;SDS011;7186;48.800;9.216;2023-04-15T11:25:27;6.73;;;3.53;;
14205;SDS011;7186;48.800;9.216;2023-04-15T11:27:53;6.50;;;3.40;;
14205;SDS011;7186;48.800;9.216;2023-04-15T11:30:22;5.70;;;3.90;;
14205;SDS011;7186;48.800;9.216;2023-04-15T11:32:48;4.77;;;3.73;;
14205;SDS011;7186;48.800;9.216;2023-04-15T11:35:13;10.67;;;3.80;;
14205;SDS011;7186;48.800;9.216;2023-04-15T11:37:38;8.00;;;3.60;;
14205;SDS011;7186;48.800;9.216;2023-04-15T11:40:04;6.03;;;4.07;;
14205;SDS011;7186;48.800;9.216;2023-04-15T11:42:30;4.70;;;3.10;;
14205;SDS011;7186;48.800;9.216;2023-04-15T11:45:11;7.70;;;3.60;;
14205;SDS011;7186;48.800;9.216;2023-04-15T11:47:37;7.87;;;3.70;;
14205;SDS011;7186;48.800;9.216;2023-04-15T11:52:58;7.60;;;4.17;;
14205;SDS011;7186;48.800;9.216;2023-04-15T11:55:23;5.23;;;4.07;;
14205;SDS011;7186;48.800;9.216;2023-04-15T11:57:49;6.00;;;3.87;;
14205;SDS011;7186;48.800;9.216;2023-04-15T12:00:15;8.90;;;4.30;;
14205;SDS011;7186;48.800;9.216;2023-04-15T12:02:41;8.00;;;4.10;;
14205;SDS011;7186;48.800;9.216;2023-04-15T12:05:07;5.73;;;4.00;;
14205;SDS011;7186;48.800;9.216;2023-04-15T12:10:18;8.53;;;4.07;;
14205;SDS011;7186;48.800;9.216;2023-04-15T12:12:47;7.73;;;3.67;;
14205;SDS011;7186;48.800;9.216;2023-04-15T12:15:12;4.50;;;3.27;;
14205;SDS011;7186;48.800;9.216;2023-04-15T12:17:38;4.20;;;2.93;;
14205;SDS011;7186;48.800;9.216;2023-04-15T12:20:04;4.60;;;2.60;;
14205;SDS011;7186;48.800;9.216;2023-04-15T12:22:29;5.40;;;3.40;;
14205;SDS011;7186;48.800;9.216;2023-04-15T12:24:54;4.40;;;3.73;;
14205;SDS011;7186;48.800;9.216;2023-04-15T12:27:24;5.20;;;3.80;;
14205;SDS011;7186;48.800;9.216;2023-04-15T12:29:50;6.47;;;3.83;;
14205;SDS011;7186;48.800;9.216;2023-04-15T12:32:15;4.83;;;3.70;;
14205;SDS011;7186;48.800;9.216;2023-04-15T12:34:43;8.23;;;4.00;;
14205;SDS011;7186;48.800;9.216;2023-04-15T12:37:10;8.57;;;4.40;;
14205;SDS011;7186;48.800;9.216;2023-04-15T12:39:36;6.00;;;3.93;;
14205;SDS011;7186;48.800;9.216;2023-04-15T12:42:02;7.07;;;4.00;;
14205;SDS011;7186;48.800;9.216;2023-04-15T12:44:29;8.43;;;4.37;;
14205;SDS011;7186;48.800;9.216;2023-04-15T12:46:55;5.43;;;3.77;;
14205;SDS011;7186;48.800;9.216;2023-04-15T12:49:20;4.27;;;3.67;;
14205;SDS011;7186;48.800;9.216;2023-04-15T12:51:49;7.83;;;3.90;;
14205;SDS011;7186;48.800;9.216;2023-04-15T12:54:15;6.53;;;4.50;;
14205;SDS011;7186;48.800;9.216;2023-04-15T12:56:41;7.13;;;4.40;;
14205;SDS011;7186;48.800;9.216;2023-04-15T12:59:07;5.77;;;4.87;;
14205;SDS011;7186;48.800;9.216;2023-04-15T13:01:34;6.33;;;4.23;;
14205;SDS011;7186;48.800;9.216;2023-04-15T13:03:59;7.13;;;4.30;;
14205;SDS011;7186;48.800;9.216;2023-04-15T13:06:24;7.63;;;4.73;;
14205;SDS011;7186;48.800;9.216;2023-04-15T13:08:49;5.47;;;3.97;;
14205;SDS011;7186;48.800;9.216;2023-04-15T13:11:15;5.03;;;3.80;;
14205;SDS011;7186;48.800;9.216;2023-04-15T13:13:41;5.87;;;3.47;;
14205;SDS011;7186;48.800;9.216;2023-04-15T13:16:06;6.43;;;3.80;;
14205;SDS011;7186;48.800;9.216;2023-04-15T13:18:32;6.63;;;3.43;;
14205;SDS011;7186;48.800;9.216;2023-04-15T13:20:58;4.50;;;2.93;;
14205;SDS011;7186;48.800;9.216;2023-04-15T13:23:24;2.90;;;2.60;;
14205;SDS011;7186;48.800;9.216;2023-04-15T13:25:49;4.60;;;2.83;;
14205;SDS011;7186;48.800;9.216;2023-04-15T13:28:15;4.37;;;2.93;;
14205;SDS011;7186;48.800;9.216;2023-04-15T13:30:40;3.60;;;2.70;;
14205;SDS011;7186;48.800;9.216;2023-04-15T13:33:08;4.50;;;3.00;;
14205;SDS011;7186;48.800;9.216;2023-04-15T13:35:33;6.20;;;2.80;;
14205;SDS011;7186;48.800;9.216;2023-04-15T13:37:58;3.70;;;2.87;;
14205;SDS011;7186;48.800;9.216;2023-04-15T13:40:23;3.07;;;2.20;;
14205;SDS011;7186;48.800;9.216;2023-04-15T13:42:49;3.93;;;2.20;;
14205;SDS011;7186;48.800;9.216;2023-04-15T13:45:16;2.67;;;2.47;;
14205;SDS011;7186;48.800;9.216;2023-04-15T13:47:42;6.23;;;2.27;;
14205;SDS011;7186;48.800;9.216;2023-04-15T13:50:07;2.57;;;2.07;;
14205;SDS011;7186;48.800;9.216;2023-04-15T13:52:32;2.53;;;1.80;;
14205;SDS011;7186;48.800;9.216;2023-04-15T13:54:57;1.80;;;1.70;;
14205;SDS011;7186;48.800;9.216;2023-04-15T13:57:23;3.33;;;1.80;;
14205;SDS011;7186;48.800;9.216;2023-04-15T13:59:49;1.70;;;1.60;;
14205;SDS011;7186;48.800;9.216;2023-04-15T14:02:14;1.57;;;1.40;;
14205;SDS011;7186;48.800;9.216;2023-04-15T14:04:39;4.03;;;1.60;;
14205;SDS011;7186;48.800;9.216;2023-04-15T14:07:04;1.63;;;1.53;;
14205;SDS011;7186;48.800;9.216;2023-04-15T14:09:30;2.00;;;1.47;;
14205;SDS011;7186;48.800;9.216;2023-04-15T14:11:55;1.60;;;1.50;;
14205;SDS011;7186;48.800;9.216;2023-04-15T14:14:20;1.57;;;1.40;;
14205;SDS011;7186;48.800;9.216;2023-04-15T14:16:46;2.07;;;1.50;;
14205;SDS011;7186;48.800;9.216;2023-04-15T14:19:12;1.60;;;1.50;;
14205;SDS011;7186;48.800;9.216;2023-04-15T14:21:37;2.33;;;1.63;;
14205;SDS011;7186;48.800;9.216;2023-04-15T14:24:02;1.80;;;1.37;;
14205;SDS011;7186;48.800;9.216;2023-04-15T14:26:27;1.00;;;1.00;;
14205;SDS011;7186;48.800;9.216;2023-04-15T14:28:53;2.43;;;1.40;;
14205;SDS011;7186;48.800;9.216;2023-04-15T14:31:18;3.73;;;1.30;;
14205;SDS011;7186;48.800;9.216;2023-04-15T14:33:43;1.80;;;1.27;;
14205;SDS011;7186;48.800;9.216;2023-04-15T14:36:10;2.10;;;1.40;;
14205;SDS011;7186;48.800;9.216;2023-04-15T14:38:36;1.77;;;1.50;;
14205;SDS011;7186;48.800;9.216;2023-04-15T14:41:05;4.90;;;1.60;;
14205;SDS011;7186;48.800;9.216;2023-04-15T14:43:31;1.53;;;1.30;;
14205;SDS011;7186;48.800;9.216;2023-04-15T14:45:57;1.60;;;1.50;;
14205;SDS011;7186;48.800;9.216;2023-04-15T14:48:22;1.50;;;1.40;;
14205;SDS011;7186;48.800;9.216;2023-04-15T14:50:47;3.70;;;1.60;;
14205;SDS011;7186;48.800;9.216;2023-04-15T14:53:14;1.30;;;1.20;;
14205;SDS011;7186;48.800;9.216;2023-04-15T14:55:39;1.70;;;1.60;;
14205;SDS011;7186;48.800;9.216;2023-04-15T14:58:05;3.20;;;1.57;;
14205;SDS011;7186;48.800;9.216;2023-04-15T15:00:32;3.60;;;1.60;;
14205;SDS011;7186;48.800;9.216;2023-04-15T15:02:57;1.87;;;1.60;;
14205;SDS011;7186;48.800;9.216;2023-04-15T15:05:22;2.10;;;1.63;;
14205;SDS011;7186;48.800;9.216;2023-04-15T15:07:48;2.97;;;1.90;;